Time;durP1;ratioP1;P1;durP2;ratioP2;P2;SDS_P1;SDS_P2;PMS_P1;PMS_P2;Temp;Humidity;BMP_temperature;BMP_pressure;BME280_temperature;BME280_humidity;BME280_pressure;Samples;Min_cycle;Max_cycle;Signal;HPM_P1;HPM_P2
2022/03/15 00:01:49;;;;;;;8.52;1.48;;;9.60;76.30;;;;;;6236898;28;20165;-85
2022/03/15 00:04:51;;;;;;;4.95;1.80;;;9.60;76.80;;;;;;6230662;28;20184;-85
2022/03/15 00:07:53;;;;;;;7.38;1.75;;;9.70;76.90;;;;;;6231353;28;20050;-85
2022/03/15 00:10:58;;;;;;;6.50;2.40;;;9.50;76.70;;;;;;6231048;28;20050;-84
2022/03/15 00:14:02;;;;;;;11.75;2.90;;;9.50;77.00;;;;;;6229883;28;20049;-84
2022/03/15 00:17:06;;;;;;;2.88;1.83;;;9.50;77.00;;;;;;6228323;28;20050;-83
2022/03/15 00:20:13;;;;;;;7.25;1.60;;;9.50;77.20;;;;;;6230189;28;20058;-84
2022/03/15 00:23:15;;;;;;;5.22;1.60;;;9.50;77.30;;;;;;6231099;28;20053;-85
2022/03/15 00:26:17;;;;;;;6.53;2.70;;;9.50;77.50;;;;;;6228573;28;20053;-84
2022/03/15 00:29:23;;;;;;;8.02;2.72;;;9.40;77.50;;;;;;6229129;28;20129;-84
2022/03/15 00:32:26;;;;;;;6.80;2.88;;;9.40;78.00;;;;;;6229685;28;20049;-83
2022/03/15 00:35:28;;;;;;;4.30;2.08;;;9.40;78.10;;;;;;6229434;28;20422;-83
2022/03/15 00:38:30;;;;;;;6.35;2.22;;;9.30;78.10;;;;;;6228617;28;20563;-83
2022/03/15 00:41:32;;;;;;;8.55;2.60;;;9.30;78.10;;;;;;6228790;28;20054;-83
2022/03/15 00:44:33;;;;;;;3.83;1.55;;;9.30;78.20;;;;;;6228438;28;20049;-83
2022/03/15 00:47:37;;;;;;;3.95;1.70;;;9.30;78.30;;;;;;6230847;28;20060;-84
2022/03/15 00:50:41;;;;;;;11.77;2.03;;;9.20;78.50;;;;;;6232153;28;20046;-84
2022/03/15 00:53:43;;;;;;;4.72;1.63;;;9.10;78.40;;;;;;6229526;28;20533;-85
2022/03/15 00:56:45;;;;;;;5.45;1.90;;;9.10;78.60;;;;;;6228673;28;20060;-84
2022/03/15 00:59:47;;;;;;;4.72;1.38;;;9.10;78.60;;;;;;6228914;28;20121;-85
2022/03/15 01:02:50;;;;;;;4.53;1.70;;;9.20;78.70;;;;;;6229983;28;20104;-84
2022/03/15 01:05:52;;;;;;;7.85;1.85;;;9.20;78.50;;;;;;6230146;28;20135;-82
2022/03/15 01:08:54;;;;;;;9.00;2.10;;;9.30;78.40;;;;;;6236585;28;20053;-83
2022/03/15 01:11:56;;;;;;;7.60;1.85;;;9.30;78.10;;;;;;6232206;28;20045;-81
2022/03/15 01:14:58;;;;;;;9.60;2.40;;;9.30;78.10;;;;;;6202675;28;20100;-81
2022/03/15 01:18:01;;;;;;;6.07;2.20;;;9.30;78.10;;;;;;6228397;28;20050;-82
2022/03/15 01:21:03;;;;;;;7.85;1.77;;;9.30;78.00;;;;;;6228375;28;20060;-84
2022/03/15 01:24:06;;;;;;;6.22;1.90;;;9.30;77.80;;;;;;6228217;28;20184;-83
2022/03/15 01:27:08;;;;;;;2.40;1.38;;;9.30;77.70;;;;;;6227191;28;20057;-81
2022/03/15 01:30:10;;;;;;;5.57;1.85;;;9.40;77.70;;;;;;6227793;28;20092;-84
2022/03/15 01:33:13;;;;;;;7.40;1.80;;;9.40;77.80;;;;;;6229904;28;20073;-80
2022/03/15 01:36:15;;;;;;;4.32;1.98;;;9.40;77.90;;;;;;6227343;28;20052;-83
2022/03/15 01:39:17;;;;;;;6.38;1.30;;;9.30;78.20;;;;;;6227359;28;20125;-84
2022/03/15 01:42:19;;;;;;;4.22;2.15;;;9.20;78.20;;;;;;6226204;28;20081;-82
2022/03/15 01:45:21;;;;;;;3.22;1.90;;;9.30;78.40;;;;;;6228064;28;20051;-85
2022/03/15 01:48:24;;;;;;;2.60;1.50;;;9.30;78.50;;;;;;6228537;28;20597;-82
2022/03/15 01:51:26;;;;;;;5.13;2.13;;;9.30;78.70;;;;;;6227353;28;20500;-83
2022/03/15 01:54:28;;;;;;;4.63;1.58;;;9.30;78.80;;;;;;6227371;28;20064;-82
2022/03/15 01:57:29;;;;;;;5.90;1.40;;;9.20;78.70;;;;;;6233708;28;20045;-84
2022/03/15 02:00:31;;;;;;;7.10;1.33;;;9.40;78.80;;;;;;6246982;28;20053;-83
2022/03/15 02:03:35;;;;;;;3.60;1.75;;;9.30;78.70;;;;;;6250833;28;20506;-83
2022/03/15 02:06:38;;;;;;;8.55;2.45;;;9.30;78.80;;;;;;6252882;28;20136;-82
2022/03/15 02:09:41;;;;;;;10.50;2.13;;;9.30;78.60;;;;;;6251871;28;20052;-83
2022/03/15 02:12:42;;;;;;;6.07;1.60;;;9.30;78.80;;;;;;6250766;28;20442;-81
2022/03/15 02:15:44;;;;;;;8.98;2.13;;;9.30;78.80;;;;;;6250371;28;20046;-79
2022/03/15 02:18:48;;;;;;;5.45;2.33;;;9.30;78.80;;;;;;6250970;28;20050;-81
2022/03/15 02:21:51;;;;;;;5.68;1.73;;;9.20;78.70;;;;;;6250315;28;20050;-84
2022/03/15 02:24:53;;;;;;;5.47;2.03;;;9.20;78.90;;;;;;6250405;28;20048;-85
2022/03/15 02:27:55;;;;;;;8.32;1.85;;;9.30;78.90;;;;;;6277054;22;20593;-81
2022/03/15 02:30:57;;;;;;;5.50;2.30;;;9.20;78.90;;;;;;6281279;28;20047;-81
2022/03/15 02:33:58;;;;;;;3.05;1.70;;;9.20;79.00;;;;;;6279200;28;20055;-81
2022/03/15 02:37:02;;;;;;;5.55;2.03;;;9.20;79.00;;;;;;6278804;28;20525;-81
2022/03/15 02:40:04;;;;;;;9.10;1.77;;;9.30;79.10;;;;;;6278729;28;20056;-81
2022/03/15 02:43:06;;;;;;;5.43;1.83;;;9.20;79.30;;;;;;6279297;28;20068;-81
2022/03/15 02:46:08;;;;;;;5.95;2.30;;;9.20;79.40;;;;;;6278008;28;20048;-81
2022/03/15 02:49:10;;;;;;;5.53;1.58;;;9.20;79.50;;;;;;6277664;28;20095;-81
2022/03/15 02:52:15;;;;;;;5.93;1.85;;;9.20;79.60;;;;;;6278220;28;20045;-80
2022/03/15 02:55:18;;;;;;;8.50;2.63;;;9.20;79.70;;;;;;6278440;28;20140;-80
2022/03/15 02:58:20;;;;;;;8.13;2.35;;;9.20;79.70;;;;;;6278776;28;20055;-81
2022/03/15 03:01:22;;;;;;;5.45;2.50;;;9.20;80.40;;;;;;6278804;28;20509;-81
2022/03/15 03:04:24;;;;;;;9.75;3.35;;;9.20;79.90;;;;;;6278144;28;20391;-79
2022/03/15 03:07:27;;;;;;;4.75;2.53;;;9.20;80.00;;;;;;6277793;28;20059;-81
2022/03/15 03:10:30;;;;;;;10.70;2.88;;;9.10;80.20;;;;;;6277954;28;20052;-81
2022/03/15 03:13:33;;;;;;;2.28;1.42;;;9.10;80.40;;;;;;6277491;28;20045;-80
2022/03/15 03:16:35;;;;;;;8.20;1.83;;;9.10;80.40;;;;;;6277687;28;20048;-81
2022/03/15 03:19:38;;;;;;;9.45;2.08;;;9.00;80.50;;;;;;6277645;28;20045;-80
2022/03/15 03:22:42;;;;;;;4.93;1.88;;;8.90;80.60;;;;;;6277264;28;20053;-80
2022/03/15 03:25:44;;;;;;;6.85;2.33;;;8.80;80.70;;;;;;6276655;28;20418;-79
2022/03/15 03:28:46;;;;;;;20.73;1.85;;;8.70;81.20;;;;;;6276321;28;20127;-79
2022/03/15 03:31:48;;;;;;;6.45;1.65;;;8.70;81.60;;;;;;6276897;28;20042;-80
2022/03/15 03:34:50;;;;;;;2.33;1.23;;;8.70;81.70;;;;;;6276379;28;20060;-79
2022/03/15 03:37:53;;;;;;;4.93;1.95;;;8.70;81.70;;;;;;6276420;28;20510;-81
2022/03/15 03:40:56;;;;;;;6.50;2.22;;;8.70;81.40;;;;;;6276693;28;20045;-80
2022/03/15 03:43:57;;;;;;;8.98;2.20;;;8.80;81.30;;;;;;6276237;28;20048;-81
2022/03/15 03:46:59;;;;;;;5.32;1.65;;;8.80;81.30;;;;;;6277623;28;20049;-81
2022/03/15 03:50:01;;;;;;;6.22;1.55;;;8.70;81.30;;;;;;6276688;28;20037;-81
2022/03/15 03:53:05;;;;;;;7.88;1.85;;;8.70;81.50;;;;;;6275930;28;20053;-81
2022/03/15 03:56:07;;;;;;;3.70;2.50;;;8.70;81.70;;;;;;6276293;28;20063;-79
2022/03/15 03:59:11;;;;;;;3.30;1.50;;;8.70;81.70;;;;;;6276086;28;20091;-80
2022/03/15 04:02:13;;;;;;;6.70;1.80;;;8.70;81.90;;;;;;6275026;28;20037;-80
2022/03/15 04:05:16;;;;;;;9.80;3.63;;;8.60;81.70;;;;;;6275346;28;20049;-81
2022/03/15 04:08:19;;;;;;;3.38;1.83;;;8.70;81.80;;;;;;6275461;28;20068;-80
2022/03/15 04:11:21;;;;;;;9.23;1.77;;;8.70;82.00;;;;;;6275806;28;20053;-80
2022/03/15 04:14:22;;;;;;;6.43;2.22;;;8.60;81.90;;;;;;6275274;28;20410;-80
2022/03/15 04:17:25;;;;;;;6.40;2.88;;;8.60;82.00;;;;;;6276178;28;20060;-80
2022/03/15 04:20:27;;;;;;;3.53;1.60;;;8.50;82.10;;;;;;6278516;28;20041;-80
2022/03/15 04:23:30;;;;;;;6.75;1.73;;;8.50;82.60;;;;;;6280410;28;20053;-81
2022/03/15 04:26:32;;;;;;;2.65;1.15;;;8.50;82.70;;;;;;6281315;28;20049;-80
2022/03/15 04:29:33;;;;;;;7.45;2.85;;;8.30;82.80;;;;;;6280251;28;20425;-80
2022/03/15 04:32:35;;;;;;;4.15;1.65;;;8.20;83.10;;;;;;6280131;28;20068;-81
2022/03/15 04:35:37;;;;;;;4.72;2.38;;;8.20;83.20;;;;;;6279564;28;20516;-81
2022/03/15 04:38:40;;;;;;;3.63;1.80;;;8.20;83.30;;;;;;6280709;28;20609;-80
2022/03/15 04:41:43;;;;;;;3.40;1.70;;;8.30;83.50;;;;;;6279655;28;20049;-81
2022/03/15 04:44:45;;;;;;;9.57;2.08;;;8.30;83.80;;;;;;6279687;28;20057;-81
2022/03/15 04:47:47;;;;;;;5.82;2.03;;;8.20;83.90;;;;;;6278874;28;20044;-81
2022/03/15 04:50:49;;;;;;;7.65;2.25;;;8.10;84.00;;;;;;6280350;28;20055;-81
2022/03/15 04:53:52;;;;;;;4.78;1.90;;;8.10;84.10;;;;;;6279850;28;20041;-81
2022/03/15 04:56:54;;;;;;;6.80;2.75;;;8.10;84.30;;;;;;6279132;28;20457;-81
2022/03/15 04:59:57;;;;;;;6.43;2.25;;;8.10;84.30;;;;;;6279151;28;20041;-81
2022/03/15 05:02:59;;;;;;;5.97;2.15;;;8.10;84.30;;;;;;6279323;28;20045;-81
2022/03/15 05:06:01;;;;;;;4.78;1.60;;;8.00;84.50;;;;;;6278050;28;20065;-81
2022/03/15 05:09:04;;;;;;;3.03;1.73;;;8.00;84.40;;;;;;6278174;28;20052;-81
2022/03/15 05:12:05;;;;;;;4.25;1.42;;;8.10;84.30;;;;;;6277555;28;20078;-81
2022/03/15 05:15:08;;;;;;;5.45;2.15;;;8.00;84.30;;;;;;6277830;28;20059;-80
2022/03/15 05:18:10;;;;;;;3.53;2.22;;;8.00;84.30;;;;;;6277525;28;20135;-81
2022/03/15 05:21:13;;;;;;;6.70;2.13;;;8.00;84.20;;;;;;6276807;28;20139;-81
2022/03/15 05:24:16;;;;;;;9.60;2.15;;;8.10;84.20;;;;;;6277046;28;20155;-80
2022/03/15 05:27:18;;;;;;;4.45;1.40;;;8.00;84.10;;;;;;6276895;28;20056;-81
2022/03/15 05:30:20;;;;;;;5.53;1.77;;;8.00;84.30;;;;;;6275654;28;20048;-81
2022/03/15 05:33:22;;;;;;;7.15;1.83;;;8.00;84.40;;;;;;6276738;28;20446;-80
2022/03/15 05:36:23;;;;;;;4.65;2.03;;;8.00;84.40;;;;;;6277120;28;20118;-81
2022/03/15 05:39:26;;;;;;;5.20;3.10;;;8.00;84.50;;;;;;6276935;28;20049;-81
2022/03/15 05:42:28;;;;;;;3.83;2.20;;;8.00;84.30;;;;;;6277780;28;20052;-81
2022/03/15 05:45:31;;;;;;;4.70;1.50;;;8.00;84.30;;;;;;6277753;28;20061;-80
2022/03/15 05:48:34;;;;;;;6.63;3.25;;;8.00;84.30;;;;;;6277894;28;20091;-81
2022/03/15 05:51:36;;;;;;;4.00;1.70;;;8.00;84.50;;;;;;6277590;28;20102;-80
2022/03/15 05:54:39;;;;;;;7.75;1.75;;;8.00;84.70;;;;;;6278078;28;20055;-80
2022/03/15 05:57:42;;;;;;;6.35;1.88;;;7.90;84.80;;;;;;6285468;28;20049;-80
2022/03/15 06:00:44;;;;;;;11.10;2.35;;;7.90;85.00;;;;;;6286690;28;20037;-81
2022/03/15 06:03:46;;;;;;;5.00;1.42;;;7.90;84.80;;;;;;6280141;28;20041;-81
2022/03/15 06:06:48;;;;;;;3.63;1.48;;;7.80;85.00;;;;;;6279576;28;20053;-80
2022/03/15 06:09:52;;;;;;;6.57;1.80;;;7.90;85.10;;;;;;6279294;28;20529;-81
2022/03/15 06:12:53;;;;;;;7.80;1.50;;;7.90;85.10;;;;;;6279606;28;20049;-81
2022/03/15 06:15:55;;;;;;;7.05;2.45;;;7.90;85.30;;;;;;6277883;28;20413;-81
2022/03/15 06:18:57;;;;;;;9.50;3.50;;;7.90;85.40;;;;;;6277733;28;20055;-80
2022/03/15 06:21:59;;;;;;;7.70;3.00;;;8.00;86.30;;;;;;6277531;28;20134;-80
2022/03/15 06:25:02;;;;;;;8.82;2.25;;;8.00;85.60;;;;;;6277296;28;20134;-81
2022/03/15 06:28:04;;;;;;;8.63;2.88;;;8.10;85.60;;;;;;6277534;28;20049;-81
2022/03/15 06:31:07;;;;;;;6.70;2.53;;;8.20;85.60;;;;;;6281246;28;20131;-81
2022/03/15 06:34:09;;;;;;;5.50;2.85;;;8.30;85.40;;;;;;6279046;28;20112;-81
2022/03/15 06:37:11;;;;;;;8.40;3.13;;;8.40;85.10;;;;;;6278714;28;20654;-81
2022/03/15 06:40:16;;;;;;;7.63;3.25;;;8.50;84.90;;;;;;6278032;28;20060;-79
2022/03/15 06:43:19;;;;;;;12.75;3.78;;;8.50;84.80;;;;;;6284549;28;20057;-80
2022/03/15 06:46:20;;;;;;;8.63;2.97;;;8.70;84.50;;;;;;6280456;28;20041;-81
2022/03/15 06:49:22;;;;;;;9.50;3.50;;;8.70;84.30;;;;;;6278260;28;20041;-81
2022/03/15 06:52:24;;;;;;;7.95;3.45;;;8.70;84.40;;;;;;6278955;28;20067;-81
2022/03/15 06:55:27;;;;;;;4.35;2.60;;;8.70;84.30;;;;;;6277622;28;20513;-79
2022/03/15 06:58:29;;;;;;;10.98;3.53;;;8.80;84.10;;;;;;6277972;28;20049;-80
2022/03/15 07:01:31;;;;;;;4.20;2.60;;;8.80;84.00;;;;;;6278445;28;20045;-81
2022/03/15 07:04:33;;;;;;;4.97;3.15;;;8.90;83.70;;;;;;6277694;28;20045;-81
2022/03/15 07:07:34;;;;;;;10.73;3.10;;;9.00;83.60;;;;;;6277378;28;20395;-80
2022/03/15 07:10:38;;;;;;;12.25;3.10;;;9.10;83.50;;;;;;6277182;28;20184;-80
2022/03/15 07:13:39;;;;;;;8.38;2.80;;;9.20;83.20;;;;;;6276893;28;20418;-81
2022/03/15 07:16:41;;;;;;;8.00;3.35;;;9.20;82.90;;;;;;6277127;28;20510;-80
2022/03/15 07:19:44;;;;;;;10.35;3.83;;;9.20;82.90;;;;;;6276118;28;20052;-79
2022/03/15 07:30:46;;;;;;;7.97;3.42;;;9.40;82.80;;;;;;6232820;28;20145;-80
2022/03/15 07:42:51;;;;;;;8.25;3.13;;;9.50;82.60;;;;;;6155071;28;20167;-82
2022/03/15 07:46:11;;;;;;;7.22;2.72;;;9.50;82.60;;;;;;6259759;28;20052;-80
2022/03/15 07:49:15;;;;;;;11.02;4.28;;;9.50;82.00;;;;;;6271527;28;20057;-79
2022/03/15 07:56:12;;;;;;;4.80;3.33;;;9.50;82.20;;;;;;6276069;28;20045;-80
2022/03/15 07:59:24;;;;;;;7.93;4.00;;;9.60;82.60;;;;;;6272051;28;20052;-80
2022/03/15 08:02:27;;;;;;;8.70;3.55;;;9.60;82.50;;;;;;6260930;28;20069;-79
2022/03/15 08:05:31;;;;;;;5.30;2.85;;;9.60;82.50;;;;;;6254961;28;20046;-82
2022/03/15 08:08:33;;;;;;;4.82;2.60;;;9.60;83.00;;;;;;6255266;28;20041;-81
2022/03/15 08:11:40;;;;;;;7.57;4.18;;;9.60;83.10;;;;;;6251911;28;20442;-81
2022/03/15 09:25:45;;;;;;;9.32;4.45;;;9.50;97.40;;;;;;5982316;29;20055;-81
2022/03/15 09:28:58;;;;;;;17.38;4.95;;;9.50;97.70;;;;;;6068443;29;20113;-81
2022/03/15 09:36:10;;;;;;;8.98;5.07;;;9.50;98.30;;;;;;6248862;28;20045;-81
2022/03/15 09:39:13;;;;;;;8.35;4.63;;;9.60;98.10;;;;;;6269637;28;20053;-81
2022/03/15 09:46:17;;;;;;;12.25;6.57;;;9.80;97.90;;;;;;6257573;28;20038;-80
2022/03/15 09:49:21;;;;;;;12.25;6.70;;;9.80;97.90;;;;;;6250644;28;20049;-79
2022/03/15 09:52:25;;;;;;;14.13;7.47;;;9.70;97.80;;;;;;6250796;28;20064;-79
2022/03/15 09:55:31;;;;;;;10.73;5.85;;;9.70;98.00;;;;;;6248242;28;20053;-80
2022/03/15 09:59:30;;;;;;;9.98;5.78;;;9.80;98.10;;;;;;6266511;28;20054;-82
2022/03/15 10:03:05;;;;;;;9.90;6.20;;;9.90;98.10;;;;;;6128312;28;20074;-82
2022/03/15 10:06:10;;;;;;;14.30;5.80;;;10.00;98.20;;;;;;6173309;28;20055;-80
2022/03/15 10:09:16;;;;;;;10.82;6.32;;;10.20;98.30;;;;;;6175682;28;20136;-84
2022/03/15 10:19:22;;;;;;;15.35;6.57;;;10.40;98.00;;;;;;6252295;28;20045;-81
2022/03/15 10:22:27;;;;;;;15.55;7.65;;;10.30;97.90;;;;;;6255004;28;20057;-81
2022/03/15 10:29:33;;;;;;;11.02;5.40;;;10.50;98.40;;;;;;6243069;28;20063;-79
2022/03/15 10:32:38;;;;;;;14.13;4.90;;;10.70;98.60;;;;;;6262402;28;20060;-79
2022/03/15 10:35:53;;;;;;;8.35;4.68;;;10.90;98.20;;;;;;6243101;28;20049;-80
2022/03/15 10:39:04;;;;;;;13.68;5.57;;;10.80;98.30;;;;;;6262679;28;20115;-79
2022/03/15 10:42:12;;;;;;;12.68;6.22;;;11.00;98.60;;;;;;6253905;28;20049;-81
2022/03/15 10:49:30;;;;;;;11.27;5.50;;;11.20;98.10;;;;;;6162633;28;20081;-82
2022/03/15 11:12:58;;;;;;;11.85;4.43;;;12.10;97.60;;;;;;6137865;29;20062;-83
2022/03/15 11:20:09;;;;;;;12.77;5.20;;;12.80;97.40;;;;;;6142901;28;20055;-82
2022/03/15 11:30:58;;;;;;;9.02;4.00;;;13.40;95.60;;;;;;6100725;29;20115;-83
2022/03/15 11:34:09;;;;;;;5.47;3.20;;;13.40;93.60;;;;;;6118548;28;20203;-79
2022/03/15 12:43:23;;;;;;;13.15;4.20;;;14.30;90.00;;;;;;6199242;28;20112;-78
2022/03/15 12:46:30;;;;;;;10.48;4.28;;;14.50;87.80;;;;;;6201465;28;20148;-81
2022/03/15 12:49:37;;;;;;;11.37;4.27;;;14.70;86.10;;;;;;6235112;28;20054;-81
2022/03/15 12:52:42;;;;;;;13.95;4.80;;;14.80;83.90;;;;;;6252347;28;20052;-81
2022/03/15 12:55:45;;;;;;;7.80;3.67;;;14.90;86.40;;;;;;6280234;28;20041;-81
2022/03/15 12:58:47;;;;;;;7.63;3.60;;;15.00;84.80;;;;;;6278918;28;20068;-81
2022/03/15 13:01:49;;;;;;;7.15;3.60;;;15.00;81.90;;;;;;6270089;28;20043;-81
2022/03/15 13:04:54;;;;;;;8.32;3.38;;;14.90;80.80;;;;;;6257123;28;20113;-81
2022/03/15 13:08:06;;;;;;;8.45;3.83;;;14.80;81.80;;;;;;6250198;28;20524;-80
2022/03/15 13:11:18;;;;;;;17.55;12.70;;;14.60;81.00;;;;;;6264546;28;20510;-81
2022/03/15 13:14:23;;;;;;;20.05;9.80;;;14.70;83.50;;;;;;6256637;28;20048;-82
2022/03/15 13:17:29;;;;;;;8.20;4.28;;;14.90;84.00;;;;;;6258822;28;20064;-84
2022/03/15 13:20:34;;;;;;;10.02;5.05;;;15.00;83.70;;;;;;6258144;28;20053;-84
2022/03/15 13:23:38;;;;;;;12.43;5.82;;;15.00;84.70;;;;;;6259343;28;20113;-84
2022/03/15 13:26:41;;;;;;;15.48;8.77;;;14.90;82.30;;;;;;6259410;28;20049;-84
2022/03/15 13:29:43;;;;;;;21.75;11.90;;;14.80;82.40;;;;;;6266555;28;20048;-84
2022/03/15 13:32:53;;;;;;;18.85;10.57;;;14.90;83.50;;;;;;6270197;28;20050;-84
2022/03/15 13:36:02;;;;;;;33.75;17.55;;;14.90;83.00;;;;;;6260279;28;20533;-84
2022/03/15 13:39:06;;;;;;;18.48;10.93;;;14.90;83.30;;;;;;6283213;28;20056;-84
2022/03/15 13:42:10;;;;;;;18.60;8.40;;;14.80;83.60;;;;;;6283472;28;20044;-84
2022/03/15 13:45:14;;;;;;;8.88;4.97;;;14.90;84.00;;;;;;6282447;28;20047;-84
2022/03/15 13:48:25;;;;;;;12.20;5.05;;;15.00;84.10;;;;;;6281384;28;20147;-84
2022/03/15 13:51:35;;;;;;;7.78;4.40;;;15.00;84.10;;;;;;6281576;28;20099;-84
2022/03/15 13:54:50;;;;;;;13.05;4.72;;;14.90;83.80;;;;;;6282138;28;20056;-84
2022/03/15 13:57:53;;;;;;;14.93;6.78;;;14.80;84.00;;;;;;6279877;28;20045;-80
2022/03/15 14:01:07;;;;;;;16.88;7.10;;;14.70;83.80;;;;;;6264328;28;20046;-80
2022/03/15 14:04:10;;;;;;;9.88;4.30;;;14.50;84.30;;;;;;6265446;28;20050;-81
2022/03/15 14:07:36;;;;;;;11.55;5.82;;;14.40;84.90;;;;;;6263703;28;20499;-81
2022/03/15 14:10:40;;;;;;;16.30;7.05;;;14.10;85.20;;;;;;6260429;28;20046;-83
2022/03/15 14:13:57;;;;;;;21.30;13.57;;;13.90;85.10;;;;;;6257466;28;20491;-83
2022/03/15 14:17:11;;;;;;;25.63;14.90;;;13.70;86.10;;;;;;6232512;28;20577;-80
2022/03/15 14:20:18;;;;;;;12.98;6.85;;;13.60;87.30;;;;;;6254728;28;20511;-80
2022/03/15 14:23:22;;;;;;;13.35;6.32;;;13.40;88.00;;;;;;6253859;28;20064;-83
2022/03/15 14:26:33;;;;;;;14.80;6.45;;;13.30;88.70;;;;;;6248813;28;20135;-83
2022/03/15 14:29:39;;;;;;;10.07;5.60;;;13.20;89.50;;;;;;6254931;28;20057;-82
2022/03/15 14:32:54;;;;;;;16.67;7.50;;;13.10;90.40;;;;;;6259935;28;20045;-82
2022/03/15 14:36:00;;;;;;;8.65;5.25;;;12.90;90.70;;;;;;6250758;28;20049;-81
2022/03/15 14:39:19;;;;;;;11.60;4.47;;;12.90;91.20;;;;;;6252683;28;20423;-81
2022/03/15 14:42:26;;;;;;;11.50;4.10;;;12.90;91.40;;;;;;6254629;28;20096;-82
2022/03/15 14:45:30;;;;;;;42.85;26.48;;;12.80;91.50;;;;;;6249366;28;20149;-79
2022/03/15 14:48:42;;;;;;;15.43;8.00;;;12.80;91.60;;;;;;6252654;28;20053;-80
2022/03/15 14:51:44;;;;;;;14.88;6.00;;;12.60;91.60;;;;;;6256062;28;20045;-80
2022/03/15 14:54:49;;;;;;;18.95;7.07;;;12.50;91.90;;;;;;6253552;28;20557;-81
2022/03/15 14:57:51;;;;;;;13.02;6.75;;;12.30;92.00;;;;;;6253075;28;20057;-81
2022/03/15 15:00:55;;;;;;;17.90;7.80;;;12.20;92.50;;;;;;6255055;28;20048;-81
2022/03/15 15:03:57;;;;;;;16.10;6.93;;;12.10;92.80;;;;;;6255909;28;20053;-82
2022/03/15 15:07:06;;;;;;;13.45;6.85;;;12.10;92.90;;;;;;6252731;28;20056;-81
2022/03/15 15:10:09;;;;;;;15.10;5.82;;;11.90;93.90;;;;;;6249364;28;20042;-81
2022/03/15 15:13:14;;;;;;;19.02;6.75;;;11.80;94.80;;;;;;6248582;28;20102;-81
2022/03/15 15:28:13;;;;;;;19.08;7.05;;;11.20;97.00;;;;;;6243496;28;20042;-82
2022/03/15 15:31:32;;;;;;;17.27;7.13;;;11.10;97.20;;;;;;6262053;28;20107;-82
2022/03/15 15:34:40;;;;;;;13.80;7.40;;;11.10;97.50;;;;;;6255823;28;20041;-83
2022/03/15 15:58:43;;;;;;;13.20;7.28;;;11.00;98.00;;;;;;6239176;28;20046;-82
2022/03/15 16:01:51;;;;;;;17.17;8.48;;;11.00;98.20;;;;;;6268231;28;20041;-82
2022/03/15 16:04:54;;;;;;;15.85;7.80;;;11.00;98.20;;;;;;6272887;28;20410;-82
2022/03/15 16:08:01;;;;;;;21.20;9.80;;;11.00;98.30;;;;;;6273706;28;20144;-82
2022/03/15 16:11:09;;;;;;;17.88;8.38;;;11.00;98.50;;;;;;6275179;28;20079;-82
2022/03/15 16:18:03;;;;;;;13.88;7.63;;;11.00;98.80;;;;;;6251475;28;20052;-79
2022/03/15 16:21:05;;;;;;;23.85;9.32;;;10.90;98.80;;;;;;6246737;28;20537;-82
2022/03/15 16:24:07;;;;;;;17.63;7.78;;;10.90;98.80;;;;;;6265177;28;20184;-80
2022/03/15 16:27:09;;;;;;;29.30;9.18;;;10.80;98.90;;;;;;6253156;28;20049;-80
2022/03/15 16:30:18;;;;;;;18.63;8.88;;;10.70;99.00;;;;;;6263597;28;20108;-81
2022/03/15 16:33:26;;;;;;;17.48;9.05;;;10.60;99.00;;;;;;6280074;28;20041;-81
2022/03/15 16:36:28;;;;;;;21.10;9.67;;;10.60;99.20;;;;;;6254451;28;20041;-80
2022/03/15 16:39:33;;;;;;;28.90;10.00;;;10.70;99.30;;;;;;6253145;28;20056;-81
2022/03/15 16:42:35;;;;;;;21.90;9.48;;;10.70;99.10;;;;;;6254829;28;20056;-81
2022/03/15 16:45:39;;;;;;;22.38;10.98;;;10.60;99.00;;;;;;6252019;28;20049;-80
2022/03/15 16:48:46;;;;;;;19.00;10.38;;;10.60;99.20;;;;;;6251601;28;20115;-80
2022/03/15 16:51:49;;;;;;;20.65;10.27;;;10.60;99.10;;;;;;6224607;28;20049;-80
2022/03/15 16:54:52;;;;;;;18.48;10.30;;;10.60;99.00;;;;;;6263297;28;20049;-80
2022/03/15 16:57:57;;;;;;;24.15;10.82;;;10.60;99.10;;;;;;6257707;28;20061;-80
2022/03/15 17:01:11;;;;;;;21.98;10.93;;;10.60;99.30;;;;;;6256442;28;20497;-81
2022/03/15 17:07:35;;;;;;;21.42;12.18;;;10.70;99.30;;;;;;6277440;28;20498;-80
2022/03/15 17:10:39;;;;;;;22.50;11.88;;;10.70;99.10;;;;;;6275515;28;20057;-81
2022/03/15 17:13:51;;;;;;;23.23;12.73;;;10.80;99.30;;;;;;6276276;28;20049;-80
2022/03/15 17:20:17;;;;;;;28.63;14.13;;;10.90;99.40;;;;;;6276569;28;20036;-81
2022/03/15 17:23:19;;;;;;;28.65;15.65;;;11.00;99.60;;;;;;6276535;28;20048;-80
2022/03/15 17:26:23;;;;;;;32.92;19.40;;;11.00;99.60;;;;;;6275295;28;20418;-80
2022/03/15 17:29:26;;;;;;;31.42;19.85;;;11.20;99.90;;;;;;6267974;28;20053;-80
2022/03/15 17:32:43;;;;;;;23.70;14.80;;;11.20;99.90;;;;;;6263998;28;20049;-80
2022/03/15 17:35:47;;;;;;;27.70;12.93;;;11.30;99.90;;;;;;6273356;28;20071;-80
2022/03/15 17:38:50;;;;;;;17.13;11.63;;;11.20;99.90;;;;;;6276057;28;20303;-80
2022/03/15 17:41:55;;;;;;;16.85;10.68;;;11.20;99.90;;;;;;6263027;28;20053;-80
2022/03/15 17:52:00;;;;;;;20.23;11.77;;;11.00;99.90;;;;;;6239795;28;20044;-80
2022/03/15 17:55:08;;;;;;;28.90;12.93;;;11.00;99.90;;;;;;6273381;28;20044;-79
2022/03/15 17:58:22;;;;;;;24.98;13.45;;;10.90;99.80;;;;;;6264289;28;20494;-79
2022/03/15 18:01:29;;;;;;;27.58;13.07;;;10.70;99.80;;;;;;6263801;28;20080;-81
2022/03/15 18:04:34;;;;;;;19.90;12.65;;;10.80;99.90;;;;;;6274743;28;20053;-80
2022/03/15 18:07:38;;;;;;;29.63;12.68;;;10.70;99.80;;;;;;6273480;28;20055;-80
2022/03/15 18:10:47;;;;;;;24.17;13.02;;;10.70;99.90;;;;;;6250186;28;20060;-80
2022/03/15 18:13:56;;;;;;;24.85;12.85;;;10.70;99.90;;;;;;6249463;28;20183;-79
2022/03/15 18:17:01;;;;;;;28.80;13.23;;;10.70;99.90;;;;;;6249427;28;20072;-80
2022/03/15 18:20:04;;;;;;;33.78;14.93;;;10.70;99.90;;;;;;6248366;28;20435;-80
2022/03/15 18:23:08;;;;;;;26.52;13.35;;;10.70;99.90;;;;;;6250861;28;20110;-80
2022/03/15 18:26:11;;;;;;;28.35;13.50;;;10.80;99.90;;;;;;6249085;28;20103;-80
2022/03/15 18:29:14;;;;;;;33.75;18.08;;;10.90;99.90;;;;;;6253726;28;20041;-80
2022/03/15 18:32:19;;;;;;;31.17;20.23;;;11.10;99.90;;;;;;6249682;28;20060;-80
2022/03/15 18:35:21;;;;;;;19.85;13.73;;;11.20;99.90;;;;;;6249163;28;20487;-81
2022/03/15 18:38:26;;;;;;;15.88;9.63;;;11.30;99.90;;;;;;6249966;28;20053;-80
2022/03/15 18:41:30;;;;;;;12.60;7.25;;;11.30;99.90;;;;;;6250478;28;20049;-79
2022/03/15 18:44:35;;;;;;;14.23;7.85;;;11.50;99.90;;;;;;6251189;28;20422;-81
2022/03/15 18:47:36;;;;;;;13.35;8.32;;;11.60;99.90;;;;;;6250465;28;20053;-80
2022/03/15 18:50:41;;;;;;;17.35;9.60;;;11.60;99.90;;;;;;6250310;28;20069;-80
2022/03/15 18:53:44;;;;;;;17.98;9.57;;;11.60;99.90;;;;;;6249716;28;20045;-80
2022/03/15 18:56:48;;;;;;;13.43;8.32;;;11.40;99.90;;;;;;6248950;28;20132;-80
2022/03/15 18:59:51;;;;;;;17.85;10.57;;;11.30;99.90;;;;;;6265085;28;20063;-81
2022/03/15 19:02:54;;;;;;;17.40;10.57;;;11.20;99.90;;;;;;6259732;28;20084;-81
2022/03/15 19:05:57;;;;;;;19.50;9.40;;;11.10;99.90;;;;;;6248829;28;20053;-80
2022/03/15 19:09:01;;;;;;;20.95;11.27;;;11.10;99.90;;;;;;6249936;28;20053;-80
2022/03/15 19:12:03;;;;;;;23.45;10.18;;;11.10;99.90;;;;;;6249048;28;20469;-80
2022/03/15 19:15:05;;;;;;;20.17;10.15;;;11.10;99.90;;;;;;6249849;28;20083;-81
2022/03/15 19:18:13;;;;;;;21.15;10.13;;;11.20;99.90;;;;;;6248987;28;20042;-80
2022/03/15 19:21:15;;;;;;;16.43;9.87;;;11.20;99.90;;;;;;6266249;28;20049;-80
2022/03/15 19:24:42;;;;;;;19.40;10.05;;;11.20;99.90;;;;;;6276354;28;20533;-81
2022/03/15 19:27:45;;;;;;;28.05;11.43;;;11.10;99.90;;;;;;6267094;28;20414;-80
2022/03/15 19:30:47;;;;;;;32.60;13.32;;;11.10;99.90;;;;;;6262984;28;20045;-83
2022/03/15 19:33:50;;;;;;;21.45;13.07;;;11.10;99.90;;;;;;6270710;28;20065;-83
2022/03/15 19:36:53;;;;;;;22.42;13.75;;;11.00;99.90;;;;;;6269532;28;20061;-81
2022/03/15 19:39:56;;;;;;;29.35;16.25;;;11.00;99.90;;;;;;6271726;28;20512;-81
2022/03/15 19:42:59;;;;;;;24.20;14.93;;;10.90;99.90;;;;;;6274039;28;20056;-81
2022/03/15 19:46:02;;;;;;;23.27;13.57;;;10.80;99.90;;;;;;6273464;28;20056;-81
2022/03/15 19:49:06;;;;;;;26.27;16.38;;;10.70;99.90;;;;;;6273345;28;20052;-80
2022/03/15 19:52:08;;;;;;;31.83;16.95;;;10.60;99.90;;;;;;6278810;28;20179;-81
2022/03/15 19:55:12;;;;;;;34.63;17.17;;;10.60;99.90;;;;;;6277840;28;20045;-81
2022/03/15 19:58:13;;;;;;;33.03;18.67;;;10.60;99.90;;;;;;6278314;28;20052;-81
2022/03/15 20:01:15;;;;;;;36.10;18.15;;;10.50;99.90;;;;;;6270358;28;20059;-80
2022/03/15 20:04:23;;;;;;;36.50;18.25;;;10.50;99.90;;;;;;6266896;28;20045;-80
2022/03/15 20:07:32;;;;;;;29.57;17.60;;;10.40;99.90;;;;;;6254741;28;20442;-81
2022/03/15 20:10:35;;;;;;;38.78;19.05;;;10.40;99.90;;;;;;6252606;28;20053;-81
2022/03/15 20:13:38;;;;;;;45.00;19.15;;;10.30;99.90;;;;;;6254769;28;20060;-82
2022/03/15 20:16:40;;;;;;;32.53;19.13;;;10.40;99.90;;;;;;6253579;28;20049;-80
2022/03/15 20:19:47;;;;;;;37.60;19.40;;;10.40;99.90;;;;;;6256099;28;20049;-82
2022/03/15 20:22:50;;;;;;;43.00;19.40;;;10.30;99.90;;;;;;6255167;28;20057;-82